createdAt,value
2022-08-12T00:00:35.142Z,19.20
2022-08-12T00:03:20.738Z,19.27
2022-08-12T00:06:06.515Z,19.13
2022-08-12T00:08:52.751Z,19.09
2022-08-12T00:11:38.694Z,19.19
2022-08-12T00:14:24.272Z,19.09
2022-08-12T00:17:09.677Z,19.33
2022-08-12T00:19:54.558Z,19.34
2022-08-12T00:22:39.922Z,19.23
2022-08-12T00:26:05.645Z,19.00
2022-08-12T00:28:30.527Z,18.74
2022-08-12T00:31:15.540Z,18.86
2022-08-12T00:34:00.691Z,18.80
2022-08-12T00:36:50.317Z,18.98
2022-08-12T00:39:36.229Z,18.88
2022-08-12T00:42:12.277Z,18.82
2022-08-12T00:44:43.828Z,18.65
2022-08-12T00:47:25.535Z,18.69
2022-08-12T00:49:53.591Z,18.74
2022-08-12T00:52:21.073Z,18.76
2022-08-12T00:54:52.948Z,18.66
2022-08-12T00:57:22.611Z,18.42
2022-08-12T00:59:53.285Z,18.24
2022-08-12T01:02:27.652Z,18.38
2022-08-12T01:05:18.366Z,18.36
2022-08-12T01:08:04.862Z,18.30
2022-08-12T01:10:51.338Z,18.42
2022-08-12T01:13:19.953Z,18.39
2022-08-12T01:15:53.277Z,18.35
2022-08-12T01:18:21.244Z,18.57
2022-08-12T01:21:08.833Z,18.40
2022-08-12T01:23:46.492Z,18.40
2022-08-12T01:26:23.807Z,18.23
2022-08-12T01:28:55.298Z,18.19
2022-08-12T01:31:23.614Z,17.80
2022-08-12T01:34:28.753Z,17.57
2022-08-12T01:36:58.639Z,17.59
2022-08-12T01:39:30.230Z,17.66
2022-08-12T01:42:00.259Z,17.75
2022-08-12T01:44:28.728Z,17.69
2022-08-12T01:47:09.852Z,17.71
2022-08-12T01:49:43.091Z,17.76
2022-08-12T01:52:27.191Z,18.03
2022-08-12T01:54:53.764Z,18.07
2022-08-12T01:57:57.822Z,17.89
2022-08-12T02:00:55.397Z,17.59
2022-08-12T02:03:50.583Z,17.53
2022-08-12T02:06:48.658Z,17.39
2022-08-12T02:09:39.766Z,17.74
2022-08-12T02:12:27.606Z,17.66
2022-08-12T02:15:12.938Z,17.57
2022-08-12T02:17:56.032Z,17.46
2022-08-12T02:20:35.482Z,17.46
2022-08-12T02:23:16.070Z,17.35
2022-08-12T02:25:44.957Z,17.83
2022-08-12T02:28:11.698Z,17.69
2022-08-12T02:30:42.298Z,17.43
2022-08-12T02:33:10.398Z,17.36
2022-08-12T02:35:37.505Z,17.62
2022-08-12T02:38:06.834Z,17.23
2022-08-12T02:40:36.527Z,17.09
2022-08-12T02:43:14.579Z,16.86
2022-08-12T02:45:55.581Z,16.85
2022-08-12T02:48:27.105Z,17.15
2022-08-12T02:50:58.095Z,17.06
2022-08-12T02:53:24.583Z,16.90
2022-08-12T02:55:50.996Z,16.64
2022-08-12T02:58:19.832Z,16.85
2022-08-12T03:00:51.951Z,16.75
2022-08-12T03:03:19.389Z,16.89
2022-08-12T03:05:59.065Z,16.70
2022-08-12T03:08:31.832Z,16.66
2022-08-12T03:11:03.640Z,16.84
2022-08-12T03:13:33.238Z,16.69
2022-08-12T03:15:59.773Z,16.71
2022-08-12T03:18:31.900Z,17.08
2022-08-12T03:21:01.397Z,17.45
2022-08-12T03:23:31.024Z,17.01
2022-08-12T03:26:02.647Z,16.96
2022-08-12T03:28:54.198Z,16.61
2022-08-12T03:31:25.443Z,16.34
2022-08-12T03:34:02.355Z,16.37
2022-08-12T03:36:33.341Z,16.40
2022-08-12T03:39:20.131Z,16.42
2022-08-12T03:42:10.384Z,16.45
2022-08-12T03:45:17.399Z,16.49
2022-08-12T03:48:22.598Z,16.46
2022-08-12T03:51:07.895Z,16.35
2022-08-12T03:53:53.450Z,16.19
2022-08-12T03:56:38.734Z,16.31
2022-08-12T03:59:24.996Z,16.36
2022-08-12T04:01:57.047Z,16.37
2022-08-12T04:04:35.071Z,16.54
2022-08-12T04:07:09.168Z,16.53
2022-08-12T04:09:40.593Z,16.43
2022-08-12T04:12:26.727Z,16.33
2022-08-12T04:14:59.933Z,16.14
2022-08-12T04:17:28.578Z,15.80
2022-08-12T04:19:56.448Z,15.75
2022-08-12T04:22:25.634Z,15.95
2022-08-12T04:24:53.820Z,16.03
2022-08-12T04:27:20.438Z,15.99
2022-08-12T04:30:20.998Z,16.08
2022-08-12T04:32:36.838Z,16.19
2022-08-12T04:35:05.470Z,15.92
2022-08-12T04:37:58.333Z,15.90
2022-08-12T04:40:28.518Z,16.17
2022-08-12T04:42:55.864Z,16.10
2022-08-12T04:45:22.596Z,16.08
2022-08-12T04:47:49.437Z,16.13
2022-08-12T04:50:34.803Z,16.27
2022-08-12T04:53:06.656Z,16.31
2022-08-12T04:55:34.805Z,16.39
2022-08-12T04:58:01.452Z,16.42
2022-08-12T05:00:27.890Z,16.37
2022-08-12T05:02:54.414Z,16.40
2022-08-12T05:05:22.949Z,16.49
2022-08-12T05:07:54.218Z,16.49
2022-08-12T05:10:21.695Z,16.45
2022-08-12T05:13:03.198Z,16.62
2022-08-12T05:15:30.354Z,16.60
2022-08-12T05:18:00.250Z,16.66
2022-08-12T05:20:29.503Z,16.61
2022-08-12T05:23:13.012Z,16.49
2022-08-12T05:25:44.879Z,16.64
2022-08-12T05:28:13.021Z,16.49
2022-08-12T05:30:41.282Z,16.66
2022-08-12T05:33:08.463Z,16.95
2022-08-12T05:35:40.063Z,17.04
2022-08-12T05:38:25.958Z,17.20
2022-08-12T05:40:52.533Z,17.22
2022-08-12T05:43:20.782Z,17.28
2022-08-12T05:45:47.616Z,17.39
2022-08-12T05:48:14.219Z,17.49
2022-08-12T05:50:41.978Z,17.51
2022-08-12T05:53:08.522Z,17.73
2022-08-12T05:55:36.357Z,17.75
2022-08-12T05:58:04.776Z,17.80
2022-08-12T06:00:32.218Z,18.03
2022-08-12T06:03:02.111Z,18.02
2022-08-12T06:05:29.984Z,18.09
2022-08-12T06:08:01.258Z,18.14
2022-08-12T06:10:32.519Z,18.27
2022-08-12T06:13:02.321Z,18.42
2022-08-12T06:15:29.517Z,18.57
2022-08-12T06:18:05.297Z,18.65
2022-08-12T06:20:41.402Z,18.77
2022-08-12T06:23:08.030Z,18.83
2022-08-12T06:25:34.527Z,19.03
2022-08-12T06:28:07.839Z,19.08
2022-08-12T06:30:38.673Z,19.11
2022-08-12T06:33:24.817Z,19.33
2022-08-12T06:35:57.524Z,19.50
2022-08-12T06:38:26.059Z,19.58
2022-08-12T06:41:13.785Z,19.62
2022-08-12T06:44:04.476Z,19.87
2022-08-12T06:46:28.935Z,20.04
2022-08-12T06:48:58.767Z,20.26
2022-08-12T06:51:30.168Z,20.39
2022-08-12T06:53:57.888Z,20.49
2022-08-12T06:56:39.888Z,20.67
2022-08-12T06:59:14.091Z,20.84
2022-08-12T07:01:40.583Z,20.75
2022-08-12T07:04:35.930Z,20.63
2022-08-12T07:07:04.569Z,20.71
2022-08-12T07:10:04.088Z,20.76
2022-08-12T07:12:19.669Z,20.79
2022-08-12T07:14:51.408Z,20.82
2022-08-12T07:17:18.159Z,20.85
2022-08-12T07:19:46.764Z,20.96
2022-08-12T07:22:15.378Z,21.17
2022-08-12T07:24:42.208Z,21.37
2022-08-12T07:27:08.716Z,21.51
2022-08-12T07:30:03.547Z,21.67
2022-08-12T07:32:24.406Z,21.89
2022-08-12T07:34:50.994Z,22.18
2022-08-12T07:37:17.802Z,22.53
2022-08-12T07:39:50.811Z,22.64
2022-08-12T07:42:26.536Z,22.72
2022-08-12T07:44:53.273Z,22.86
2022-08-12T07:47:19.717Z,23.05
2022-08-12T07:50:04.878Z,23.21
2022-08-12T07:52:32.836Z,23.15
2022-08-12T07:55:00.210Z,23.45
2022-08-12T07:57:26.713Z,23.65
2022-08-12T07:59:55.657Z,23.65
2022-08-12T08:02:35.992Z,24.05
2022-08-12T08:05:03.650Z,24.03
2022-08-12T08:07:30.756Z,24.25
2022-08-12T08:09:59.437Z,24.40
2022-08-12T08:12:48.356Z,24.52
2022-08-12T08:15:16.382Z,24.64
2022-08-12T08:18:01.318Z,24.86
2022-08-12T08:20:29.849Z,24.96
2022-08-12T08:22:58.125Z,24.97
2022-08-12T08:25:35.581Z,25.15
2022-08-12T08:28:08.148Z,25.43
2022-08-12T08:30:38.191Z,25.58
2022-08-12T08:33:23.568Z,25.44
2022-08-12T08:35:54.278Z,25.70
2022-08-12T08:38:33.268Z,25.75
2022-08-12T08:42:15.824Z,25.76
2022-08-12T08:44:07.762Z,26.21
2022-08-12T08:46:37.397Z,26.25
2022-08-12T08:49:05.144Z,26.59
2022-08-12T08:51:31.653Z,26.26
2022-08-12T08:53:58.103Z,26.33
2022-08-12T08:56:24.543Z,26.21
2022-08-12T08:58:51.850Z,26.65
2022-08-12T09:01:22.361Z,26.89
2022-08-12T09:05:10.123Z,27.24
2022-08-12T09:06:37.732Z,27.40
2022-08-12T09:09:13.343Z,27.75
2022-08-12T09:12:10.604Z,27.49
2022-08-12T09:14:46.834Z,27.53
2022-08-12T09:17:20.833Z,27.72
2022-08-12T09:19:52.250Z,27.47
2022-08-12T09:22:29.186Z,27.95
2022-08-12T09:24:56.327Z,28.01
2022-08-12T09:27:57.789Z,28.28
2022-08-12T09:30:15.704Z,28.39
2022-08-12T09:33:04.680Z,28.46
2022-08-12T09:35:44.272Z,28.43
2022-08-12T09:38:29.929Z,28.29
2022-08-12T09:42:08.334Z,28.54
2022-08-12T09:44:06.539Z,28.88
2022-08-12T09:46:52.920Z,28.91
2022-08-12T09:49:19.422Z,28.75
2022-08-12T09:51:50.634Z,28.70
2022-08-12T09:54:33.901Z,28.90
2022-08-12T09:58:45.790Z,29.15
2022-08-12T10:00:17.148Z,29.53
2022-08-12T10:02:58.895Z,29.75
2022-08-12T10:06:26.531Z,29.79
2022-08-12T10:08:15.594Z,29.75
2022-08-12T10:11:05.920Z,30.07
2022-08-12T10:13:43.344Z,30.47
2022-08-12T10:16:18.733Z,30.33
2022-08-12T10:18:55.532Z,30.01
2022-08-12T10:21:36.350Z,30.26
2022-08-12T10:24:20.098Z,30.56
2022-08-12T10:27:05.881Z,30.21
2022-08-12T10:30:03.737Z,30.26
2022-08-12T10:32:45.540Z,30.87
2022-08-12T10:35:20.041Z,31.46
2022-08-12T10:38:33.600Z,31.22
2022-08-12T10:40:37.523Z,31.01
2022-08-12T10:43:22.571Z,31.57
2022-08-12T10:45:50.353Z,31.59
2022-08-12T10:48:27.099Z,31.65
2022-08-12T10:51:49.002Z,31.03
2022-08-12T10:53:52.487Z,30.95
2022-08-12T10:56:19.234Z,31.71
2022-08-12T10:58:47.216Z,32.20
2022-08-12T11:01:50.440Z,32.43
2022-08-12T11:04:24.693Z,31.81
2022-08-12T11:07:06.997Z,32.00
2022-08-12T11:09:55.947Z,31.99
2022-08-12T11:12:54.658Z,32.24
2022-08-12T11:15:19.468Z,32.22
2022-08-12T11:17:53.286Z,32.87
2022-08-12T11:20:20.818Z,31.86
2022-08-12T11:23:04.140Z,31.87
2022-08-12T11:25:58.315Z,32.00
2022-08-12T11:28:34.685Z,32.11
2022-08-12T11:31:05.073Z,32.34
2022-08-12T11:34:04.138Z,32.40
2022-08-12T11:36:17.889Z,33.00
2022-08-12T11:38:50.689Z,33.12
2022-08-12T11:41:31.462Z,33.25
2022-08-12T11:44:24.070Z,32.53
2022-08-12T11:46:46.796Z,33.12
2022-08-12T11:49:26.923Z,33.20
2022-08-12T11:52:02.717Z,33.45
2022-08-12T11:54:30.207Z,33.14
2022-08-12T11:57:01.989Z,33.80
2022-08-12T12:02:20.520Z,33.98
2022-08-12T12:04:52.941Z,33.44
2022-08-12T12:08:35.968Z,33.94
2022-08-12T12:10:11.486Z,34.42
2022-08-12T12:12:37.997Z,35.06
2022-08-12T12:15:09.687Z,35.25
2022-08-12T12:17:38.468Z,34.35
2022-08-12T12:20:10.516Z,34.56
2022-08-12T12:22:39.571Z,35.63
2022-08-12T12:25:12.745Z,36.22
2022-08-12T12:28:04.530Z,35.74
2022-08-12T12:30:32.621Z,36.21
2022-08-12T12:32:59.435Z,36.85
2022-08-12T12:36:19.689Z,36.26
2022-08-12T12:38:14.196Z,37.08
2022-08-12T12:40:44.495Z,36.34
2022-08-12T12:43:12.760Z,36.55
2022-08-12T12:45:44.366Z,37.84
2022-08-12T12:48:17.389Z,37.85
2022-08-12T12:51:10.753Z,37.35
2022-08-12T12:54:07.619Z,37.08
2022-08-12T12:56:34.231Z,37.02
2022-08-12T12:59:03.423Z,37.35
2022-08-12T13:01:30.934Z,38.45
2022-08-12T13:04:02.564Z,37.02
2022-08-12T13:06:30.839Z,36.50
2022-08-12T13:09:03.063Z,37.02
2022-08-12T13:11:41.282Z,37.58
2022-08-12T13:14:28.651Z,38.74
2022-08-12T13:16:57.410Z,38.66
2022-08-12T13:19:25.465Z,39.67
2022-08-12T13:22:21.660Z,39.34
2022-08-12T13:24:55.736Z,38.57
2022-08-12T13:27:34.474Z,39.34
2022-08-12T13:30:06.553Z,39.40
2022-08-12T13:32:33.165Z,39.23
2022-08-12T13:35:04.683Z,39.37
2022-08-12T13:37:54.760Z,38.94
2022-08-12T13:40:29.589Z,39.44
2022-08-12T13:42:57.601Z,40.51
2022-08-12T13:45:29.059Z,40.71
2022-08-12T13:48:03.583Z,40.96
2022-08-12T13:50:40.446Z,39.89
2022-08-12T13:53:24.204Z,39.97
2022-08-12T13:56:01.530Z,40.01
2022-08-12T13:58:30.962Z,40.27
2022-08-12T14:01:04.542Z,40.44
2022-08-12T14:03:51.319Z,39.84
2022-08-12T14:06:17.396Z,39.31
2022-08-12T14:08:44.152Z,38.67
2022-08-12T14:11:12.532Z,39.20
2022-08-12T14:14:05.797Z,38.23
2022-08-12T14:16:37.905Z,38.28
2022-08-12T14:19:24.279Z,38.17
2022-08-12T14:21:58.829Z,39.40
2022-08-12T14:24:27.343Z,39.43
2022-08-12T14:26:57.394Z,41.24
2022-08-12T14:29:55.665Z,39.82
2022-08-12T14:32:16.401Z,40.11
2022-08-12T14:34:44.073Z,40.48
2022-08-12T14:37:13.112Z,41.04
2022-08-12T14:39:57.084Z,38.76
2022-08-12T14:42:23.654Z,38.08
2022-08-12T14:44:57.929Z,38.07
2022-08-12T14:47:26.752Z,37.82
2022-08-12T14:50:37.503Z,37.03
2022-08-12T14:54:14.138Z,35.48
2022-08-12T14:58:20.454Z,34.98
2022-08-12T15:01:06.715Z,34.71
2022-08-12T15:03:52.884Z,34.26
2022-08-12T15:06:43.819Z,33.87
2022-08-12T15:09:09.314Z,34.05
2022-08-12T15:11:54.880Z,33.22
2022-08-12T15:14:26.543Z,33.78
2022-08-12T15:16:54.154Z,34.31
2022-08-12T15:20:11.529Z,34.03
2022-08-12T15:22:38.265Z,34.28
2022-08-12T15:24:53.647Z,34.12
2022-08-12T15:27:22.512Z,34.31
2022-08-12T15:29:58.297Z,34.08
2022-08-12T15:32:31.731Z,33.61
2022-08-12T15:35:00.333Z,33.69
2022-08-12T15:38:09.065Z,33.64
2022-08-12T15:40:13.548Z,33.68
2022-08-12T15:42:40.023Z,33.69
2022-08-12T15:45:08.661Z,34.07
2022-08-12T15:47:49.521Z,33.63
2022-08-12T15:50:23.175Z,34.00
2022-08-12T15:52:54.012Z,33.56
2022-08-12T15:55:21.573Z,33.69
2022-08-12T15:57:53.391Z,33.29
2022-08-12T16:00:32.875Z,33.31
2022-08-12T16:03:02.177Z,32.96
2022-08-12T16:06:11.810Z,33.18
2022-08-12T16:08:27.604Z,33.38
2022-08-12T16:10:54.516Z,33.09
2022-08-12T16:13:32.222Z,33.05
2022-08-12T16:16:03.490Z,33.32
2022-08-12T16:18:33.289Z,33.26
2022-08-12T16:21:00.384Z,33.33
2022-08-12T16:23:52.151Z,33.30
2022-08-12T16:26:15.073Z,33.22
2022-08-12T16:28:42.695Z,33.00
2022-08-12T16:31:13.348Z,33.14
2022-08-12T16:33:58.695Z,33.01
2022-08-12T16:36:28.623Z,32.92
2022-08-12T16:38:55.010Z,32.92
2022-08-12T16:41:22.442Z,33.02
2022-08-12T16:43:49.117Z,33.04
2022-08-12T16:46:31.654Z,32.85
2022-08-12T16:48:59.533Z,32.68
2022-08-12T16:51:30.460Z,32.92
2022-08-12T16:54:04.063Z,32.11
2022-08-12T16:56:35.445Z,32.04
2022-08-12T16:59:16.160Z,32.18
2022-08-12T17:01:45.807Z,32.33
2022-08-12T17:04:12.704Z,32.19
2022-08-12T17:06:47.843Z,31.77
2022-08-12T17:09:17.965Z,31.78
2022-08-12T17:11:49.142Z,31.75
2022-08-12T17:14:23.152Z,31.75
2022-08-12T17:16:54.658Z,31.72
2022-08-12T17:20:02.643Z,31.18
2022-08-12T17:22:08.816Z,31.02
2022-08-12T17:24:38.287Z,30.92
2022-08-12T17:27:16.405Z,30.74
2022-08-12T17:30:02.970Z,30.87
2022-08-12T17:32:33.400Z,30.86
2022-08-12T17:35:18.608Z,30.81
2022-08-12T17:37:48.346Z,30.93
2022-08-12T17:40:34.598Z,30.70
2022-08-12T17:43:04.670Z,30.64
2022-08-12T17:45:52.595Z,30.55
2022-08-12T17:48:21.704Z,30.51
2022-08-12T17:50:50.698Z,30.55
2022-08-12T17:53:18.988Z,30.59
2022-08-12T17:55:51.639Z,30.44
2022-08-12T17:58:35.641Z,30.32
2022-08-12T18:01:04.355Z,30.14
2022-08-12T18:04:06.977Z,29.92
2022-08-12T18:06:17.989Z,29.95
2022-08-12T18:08:55.120Z,30.00
2022-08-12T18:12:05.453Z,29.96
2022-08-12T18:14:28.888Z,29.89
2022-08-12T18:16:56.868Z,29.79
2022-08-12T18:19:23.707Z,29.78
2022-08-12T18:22:02.069Z,29.67
2022-08-12T18:24:29.988Z,29.35
2022-08-12T18:26:56.569Z,29.18
2022-08-12T18:29:23.834Z,28.95
2022-08-12T18:31:58.812Z,28.97
2022-08-12T18:34:27.690Z,28.98
2022-08-12T18:36:55.589Z,28.90
2022-08-12T18:39:22.370Z,28.73
2022-08-12T18:41:49.752Z,28.50
2022-08-12T18:44:16.166Z,28.45
2022-08-12T18:46:55.731Z,28.22
2022-08-12T18:49:31.918Z,28.19
2022-08-12T18:52:04.701Z,27.79
2022-08-12T18:54:34.891Z,27.76
2022-08-12T18:57:06.923Z,27.46
2022-08-12T19:00:00.101Z,27.41
2022-08-12T19:02:31.982Z,27.24
2022-08-12T19:04:58.831Z,27.10
2022-08-12T19:07:29.564Z,26.90
2022-08-12T19:10:13.406Z,26.67
2022-08-12T19:12:59.436Z,26.47
2022-08-12T19:15:27.158Z,26.35
2022-08-12T19:18:01.141Z,26.28
2022-08-12T19:20:30.694Z,26.27
2022-08-12T19:22:59.813Z,26.09
2022-08-12T19:25:59.694Z,26.05
2022-08-12T19:28:29.985Z,25.89
2022-08-12T19:31:23.117Z,25.85
2022-08-12T19:36:55.946Z,25.71
2022-08-12T19:39:23.136Z,25.50
2022-08-12T19:42:01.328Z,25.51
2022-08-12T19:44:29.248Z,25.32
2022-08-12T19:46:56.048Z,25.46
2022-08-12T19:49:23.087Z,25.22
2022-08-12T19:51:49.581Z,25.20
2022-08-12T19:54:22.902Z,25.23
2022-08-12T19:56:52.143Z,25.04
2022-08-12T19:59:43.458Z,25.03
2022-08-12T20:02:21.628Z,24.91
2022-08-12T20:06:04.701Z,24.81
2022-08-12T20:07:56.751Z,24.70
2022-08-12T20:10:24.928Z,24.72
2022-08-12T20:13:19.123Z,24.53
2022-08-12T20:15:51.043Z,24.32
2022-08-12T20:18:53.442Z,24.42
2022-08-12T20:21:14.923Z,24.35
2022-08-12T20:24:00.468Z,24.35
2022-08-12T20:26:27.681Z,24.33
2022-08-12T20:28:54.773Z,24.21
2022-08-12T20:31:21.228Z,24.10
2022-08-12T20:33:50.732Z,24.03
2022-08-12T20:36:41.611Z,24.01
2022-08-12T20:39:34.085Z,23.84
2022-08-12T20:42:07.113Z,23.61
2022-08-12T20:44:36.328Z,23.45
2022-08-12T20:47:16.683Z,23.62
2022-08-12T20:49:45.791Z,23.60
2022-08-12T20:52:15.176Z,23.62
2022-08-12T20:54:50.093Z,23.47
2022-08-12T20:57:19.328Z,23.41
2022-08-12T20:59:48.204Z,23.43
2022-08-12T21:02:24.349Z,23.34
2022-08-12T21:05:20.176Z,23.30
2022-08-12T21:07:52.346Z,23.15
2022-08-12T21:10:20.957Z,23.09
2022-08-12T21:12:48.183Z,23.06
2022-08-12T21:15:23.152Z,23.18
2022-08-12T21:18:07.897Z,23.04
2022-08-12T21:20:38.344Z,22.92
2022-08-12T21:23:06.377Z,22.84
2022-08-12T21:25:44.775Z,22.55
2022-08-12T21:28:13.428Z,22.31
2022-08-12T21:31:11.405Z,22.19
2022-08-12T21:33:31.299Z,22.13
2022-08-12T21:35:58.167Z,22.02
2022-08-12T21:38:26.378Z,21.85
2022-08-12T21:41:09.004Z,21.81
2022-08-12T21:43:44.505Z,21.70
2022-08-12T21:46:14.967Z,21.66
2022-08-12T21:49:01.328Z,21.72
2022-08-12T21:51:49.608Z,21.63
2022-08-12T21:54:22.083Z,21.39
2022-08-12T21:56:49.312Z,21.24
2022-08-12T21:59:17.831Z,21.41
2022-08-12T22:01:49.129Z,21.41
2022-08-12T22:04:34.811Z,21.48
2022-08-12T22:07:01.685Z,21.21
2022-08-12T22:09:29.477Z,21.08
2022-08-12T22:12:27.970Z,21.02
2022-08-12T22:14:54.458Z,20.79
2022-08-12T22:17:20.939Z,20.80
2022-08-12T22:19:50.420Z,21.04
2022-08-12T22:22:16.858Z,21.00
2022-08-12T22:24:45.458Z,20.77
2022-08-12T22:27:22.986Z,20.49
2022-08-12T22:30:19.589Z,20.49
2022-08-12T22:32:51.559Z,20.50
2022-08-12T22:35:47.634Z,20.52
2022-08-12T22:38:23.930Z,20.71
2022-08-12T22:41:00.584Z,20.53
2022-08-12T22:44:00.925Z,20.54
2022-08-12T22:46:51.816Z,20.46
2022-08-12T22:49:20.736Z,20.44
2022-08-12T22:52:01.347Z,20.49
2022-08-12T22:54:37.062Z,20.50
2022-08-12T22:57:05.128Z,20.48
2022-08-12T22:59:55.482Z,20.51
2022-08-12T23:02:29.104Z,20.36
2022-08-12T23:04:57.666Z,20.53
2022-08-12T23:07:24.191Z,20.37
2022-08-12T23:09:50.938Z,20.50
2022-08-12T23:12:46.935Z,20.43
2022-08-12T23:15:15.557Z,20.32
2022-08-12T23:17:42.617Z,20.25
2022-08-12T23:20:11.002Z,20.15
2022-08-12T23:22:38.356Z,20.21
2022-08-12T23:25:05.256Z,19.84
2022-08-12T23:27:55.894Z,19.82
2022-08-12T23:30:31.981Z,19.83
2022-08-12T23:33:19.798Z,19.77
2022-08-12T23:35:58.893Z,19.83
2022-08-12T23:38:32.313Z,19.90
2022-08-12T23:41:01.611Z,19.77
2022-08-12T23:43:39.472Z,19.48
2022-08-12T23:46:09.548Z,19.23
2022-08-12T23:48:37.400Z,19.14
2022-08-12T23:51:21.777Z,19.24
2022-08-12T23:53:50.507Z,19.15
2022-08-12T23:56:16.938Z,19.27
2022-08-12T23:58:49.593Z,19.20
